Fulton, Missouri
Current Conditions -  °F | °C
As of 10:54 PM on Monday 22 Dec 2014 (Local Time) from KCOU Reporting Station
Overcast Overcast  
Wind Chill:   Ceiling: 2200
Heat Index:   Visibility: 10mi
Dew Point:   Wind: 13mph
Humidity: 93%   Direction: 240°WSW
Pressure: 29.54"   Gusts: NA
Location:  38.85°N, 91.95°W
Report Text: KCOU 230454Z AUTO 24011KT 10SM FEW013 OVC022 07/06 A2954 RMK AO2 SLP006 T00720061
Loading
Personal Weather Stations






























Interactive Weather Map New forecast layout! Learn more

10-Day Weather Forecast

Advertisements
Track Severe Weather on mobile